sensor_id;sensor_type;location;lat;lon;timestamp;temperature;humidity
62589;DHT22;58504;48.770;9.148;2023-12-22T00:02:18;22.00;48.30
62589;DHT22;58504;48.770;9.148;2023-12-22T00:04:46;22.00;48.30
62589;DHT22;58504;48.770;9.148;2023-12-22T00:07:13;21.90;48.30
62589;DHT22;58504;48.770;9.148;2023-12-22T00:09:40;21.90;48.40
62589;DHT22;58504;48.770;9.148;2023-12-22T00:12:07;21.90;48.40
62589;DHT22;58504;48.770;9.148;2023-12-22T00:14:34;21.80;48.10
62589;DHT22;58504;48.770;9.148;2023-12-22T00:17:03;21.80;48.80
62589;DHT22;58504;48.770;9.148;2023-12-22T00:19:29;21.70;48.20
62589;DHT22;58504;48.770;9.148;2023-12-22T00:21:57;21.70;48.30
62589;DHT22;58504;48.770;9.148;2023-12-22T00:24:24;21.60;49.00
62589;DHT22;58504;48.770;9.148;2023-12-22T00:26:51;21.60;48.50
62589;DHT22;58504;48.770;9.148;2023-12-22T00:29:18;21.60;48.50
62589;DHT22;58504;48.770;9.148;2023-12-22T00:31:45;21.60;48.50
62589;DHT22;58504;48.770;9.148;2023-12-22T00:34:11;21.50;48.50
62589;DHT22;58504;48.770;9.148;2023-12-22T00:36:38;21.50;48.50
62589;DHT22;58504;48.770;9.148;2023-12-22T00:39:06;21.40;48.60
62589;DHT22;58504;48.770;9.148;2023-12-22T00:41:33;21.40;48.70
62589;DHT22;58504;48.770;9.148;2023-12-22T00:43:59;21.40;48.70
62589;DHT22;58504;48.770;9.148;2023-12-22T00:46:26;21.40;48.80
62589;DHT22;58504;48.770;9.148;2023-12-22T00:48:53;21.30;48.80
62589;DHT22;58504;48.770;9.148;2023-12-22T00:51:20;21.30;48.90
62589;DHT22;58504;48.770;9.148;2023-12-22T00:53:46;21.30;49.10
62589;DHT22;58504;48.770;9.148;2023-12-22T00:56:14;21.30;49.10
62589;DHT22;58504;48.770;9.148;2023-12-22T00:58:41;21.20;49.00
62589;DHT22;58504;48.770;9.148;2023-12-22T01:01:08;21.20;49.10
62589;DHT22;58504;48.770;9.148;2023-12-22T01:03:35;21.20;49.30
62589;DHT22;58504;48.770;9.148;2023-12-22T01:06:02;21.10;49.30
62589;DHT22;58504;48.770;9.148;2023-12-22T01:08:29;21.10;49.90
62589;DHT22;58504;48.770;9.148;2023-12-22T01:10:55;21.10;49.50
62589;DHT22;58504;48.770;9.148;2023-12-22T01:13:24;21.10;49.60
62589;DHT22;58504;48.770;9.148;2023-12-22T01:15:50;21.00;49.50
62589;DHT22;58504;48.770;9.148;2023-12-22T01:18:17;21.00;49.60
62589;DHT22;58504;48.770;9.148;2023-12-22T01:20:44;20.90;49.60
62589;DHT22;58504;48.770;9.148;2023-12-22T01:23:10;21.00;49.70
62589;DHT22;58504;48.770;9.148;2023-12-22T01:25:37;21.00;49.70
62589;DHT22;58504;48.770;9.148;2023-12-22T01:28:04;20.90;49.70
62589;DHT22;58504;48.770;9.148;2023-12-22T01:30:32;20.90;49.70
62589;DHT22;58504;48.770;9.148;2023-12-22T01:32:59;20.90;49.70
62589;DHT22;58504;48.770;9.148;2023-12-22T01:35:26;20.90;49.70
62589;DHT22;58504;48.770;9.148;2023-12-22T01:37:54;20.90;49.90
62589;DHT22;58504;48.770;9.148;2023-12-22T01:40:22;20.80;49.70
62589;DHT22;58504;48.770;9.148;2023-12-22T01:42:49;20.80;49.70
62589;DHT22;58504;48.770;9.148;2023-12-22T01:45:15;20.80;49.70
62589;DHT22;58504;48.770;9.148;2023-12-22T01:47:44;20.80;49.80
62589;DHT22;58504;48.770;9.148;2023-12-22T01:50:12;20.70;49.70
62589;DHT22;58504;48.770;9.148;2023-12-22T01:52:41;20.70;49.70
62589;DHT22;58504;48.770;9.148;2023-12-22T01:55:10;20.70;49.90
62589;DHT22;58504;48.770;9.148;2023-12-22T01:57:38;20.70;49.90
62589;DHT22;58504;48.770;9.148;2023-12-22T02:00:07;20.70;49.90
62589;DHT22;58504;48.770;9.148;2023-12-22T02:02:34;20.60;50.00
62589;DHT22;58504;48.770;9.148;2023-12-22T02:05:02;20.60;50.00
62589;DHT22;58504;48.770;9.148;2023-12-22T02:07:29;20.60;50.00
62589;DHT22;58504;48.770;9.148;2023-12-22T02:09:56;20.60;50.10
62589;DHT22;58504;48.770;9.148;2023-12-22T02:12:23;20.60;50.20
62589;DHT22;58504;48.770;9.148;2023-12-22T02:14:50;20.60;50.10
62589;DHT22;58504;48.770;9.148;2023-12-22T02:17:36;20.60;50.10
62589;DHT22;58504;48.770;9.148;2023-12-22T02:20:08;20.50;50.00
62589;DHT22;58504;48.770;9.148;2023-12-22T02:22:37;20.50;50.00
62589;DHT22;58504;48.770;9.148;2023-12-22T02:25:04;20.50;50.20
62589;DHT22;58504;48.770;9.148;2023-12-22T02:27:35;20.50;50.20
62589;DHT22;58504;48.770;9.148;2023-12-22T02:30:06;20.40;50.10
62589;DHT22;58504;48.770;9.148;2023-12-22T02:32:36;20.40;50.10
62589;DHT22;58504;48.770;9.148;2023-12-22T02:35:09;20.40;50.00
62589;DHT22;58504;48.770;9.148;2023-12-22T02:37:39;20.40;50.00
62589;DHT22;58504;48.770;9.148;2023-12-22T02:40:07;20.40;50.10
62589;DHT22;58504;48.770;9.148;2023-12-22T02:42:34;20.40;50.20
62589;DHT22;58504;48.770;9.148;2023-12-22T02:45:03;20.30;50.10
62589;DHT22;58504;48.770;9.148;2023-12-22T02:47:30;20.30;50.10
62589;DHT22;58504;48.770;9.148;2023-12-22T02:49:57;20.30;50.10
62589;DHT22;58504;48.770;9.148;2023-12-22T02:52:24;20.30;50.10
62589;DHT22;58504;48.770;9.148;2023-12-22T02:54:52;20.30;50.10
62589;DHT22;58504;48.770;9.148;2023-12-22T02:57:19;20.30;50.00
62589;DHT22;58504;48.770;9.148;2023-12-22T02:59:46;20.30;50.20
62589;DHT22;58504;48.770;9.148;2023-12-22T03:02:13;20.20;50.20
62589;DHT22;58504;48.770;9.148;2023-12-22T03:04:39;20.20;50.20
62589;DHT22;58504;48.770;9.148;2023-12-22T03:07:06;20.20;50.10
62589;DHT22;58504;48.770;9.148;2023-12-22T03:09:33;20.20;50.20
62589;DHT22;58504;48.770;9.148;2023-12-22T03:12:01;20.20;50.30
62589;DHT22;58504;48.770;9.148;2023-12-22T03:14:29;20.20;50.30
62589;DHT22;58504;48.770;9.148;2023-12-22T03:16:55;20.20;50.40
62589;DHT22;58504;48.770;9.148;2023-12-22T03:19:22;20.20;50.40
62589;DHT22;58504;48.770;9.148;2023-12-22T03:21:49;20.40;50.10
62589;DHT22;58504;48.770;9.148;2023-12-22T03:24:16;20.60;49.70
62589;DHT22;58504;48.770;9.148;2023-12-22T03:26:44;20.80;49.50
62589;DHT22;58504;48.770;9.148;2023-12-22T03:29:12;21.10;49.30
62589;DHT22;58504;48.770;9.148;2023-12-22T03:31:39;21.30;49.00
62589;DHT22;58504;48.770;9.148;2023-12-22T03:34:06;21.40;48.80
62589;DHT22;58504;48.770;9.148;2023-12-22T03:36:33;21.50;48.60
62589;DHT22;58504;48.770;9.148;2023-12-22T03:39:00;21.60;48.50
62589;DHT22;58504;48.770;9.148;2023-12-22T03:41:27;21.70;48.30
62589;DHT22;58504;48.770;9.148;2023-12-22T03:43:54;21.80;48.30
62589;DHT22;58504;48.770;9.148;2023-12-22T03:46:22;21.80;48.10
62589;DHT22;58504;48.770;9.148;2023-12-22T03:48:49;21.90;48.10
62589;DHT22;58504;48.770;9.148;2023-12-22T03:51:16;22.00;48.10
62589;DHT22;58504;48.770;9.148;2023-12-22T03:53:43;22.00;48.00
62589;DHT22;58504;48.770;9.148;2023-12-22T03:56:10;22.00;47.90
62589;DHT22;58504;48.770;9.148;2023-12-22T03:58:37;22.00;47.80
62589;DHT22;58504;48.770;9.148;2023-12-22T04:01:05;22.00;47.80
62589;DHT22;58504;48.770;9.148;2023-12-22T04:03:34;22.00;47.80
62589;DHT22;58504;48.770;9.148;2023-12-22T04:06:02;22.00;47.90
62589;DHT22;58504;48.770;9.148;2023-12-22T04:08:28;22.00;47.90
62589;DHT22;58504;48.770;9.148;2023-12-22T04:10:55;22.10;48.20
62589;DHT22;58504;48.770;9.148;2023-12-22T04:13:22;22.20;48.40
62589;DHT22;58504;48.770;9.148;2023-12-22T04:15:49;22.20;48.40
62589;DHT22;58504;48.770;9.148;2023-12-22T04:18:15;22.30;48.40
62589;DHT22;58504;48.770;9.148;2023-12-22T04:20:43;22.30;48.40
62589;DHT22;58504;48.770;9.148;2023-12-22T04:23:10;22.30;48.30
62589;DHT22;58504;48.770;9.148;2023-12-22T04:25:37;22.30;48.10
62589;DHT22;58504;48.770;9.148;2023-12-22T04:28:04;22.40;48.20
62589;DHT22;58504;48.770;9.148;2023-12-22T04:30:31;22.40;48.10
62589;DHT22;58504;48.770;9.148;2023-12-22T04:32:58;22.40;48.10
62589;DHT22;58504;48.770;9.148;2023-12-22T04:35:24;22.40;48.00
62589;DHT22;58504;48.770;9.148;2023-12-22T04:37:52;22.50;48.10
62589;DHT22;58504;48.770;9.148;2023-12-22T04:40:19;22.50;48.10
62589;DHT22;58504;48.770;9.148;2023-12-22T04:42:46;22.50;47.90
62589;DHT22;58504;48.770;9.148;2023-12-22T04:45:13;22.50;47.80
62589;DHT22;58504;48.770;9.148;2023-12-22T04:47:40;22.50;47.70
62589;DHT22;58504;48.770;9.148;2023-12-22T04:50:07;22.60;47.80
62589;DHT22;58504;48.770;9.148;2023-12-22T04:52:34;22.60;47.70
62589;DHT22;58504;48.770;9.148;2023-12-22T04:55:03;22.60;47.70
62589;DHT22;58504;48.770;9.148;2023-12-22T04:57:29;22.60;47.70
62589;DHT22;58504;48.770;9.148;2023-12-22T04:59:56;22.60;47.70
62589;DHT22;58504;48.770;9.148;2023-12-22T05:02:23;22.60;47.50
62589;DHT22;58504;48.770;9.148;2023-12-22T05:04:50;22.60;47.40
62589;DHT22;58504;48.770;9.148;2023-12-22T05:07:17;22.70;47.40
62589;DHT22;58504;48.770;9.148;2023-12-22T05:09:43;22.70;47.50
62589;DHT22;58504;48.770;9.148;2023-12-22T05:12:11;22.70;47.40
62589;DHT22;58504;48.770;9.148;2023-12-22T05:14:38;22.70;47.40
62589;DHT22;58504;48.770;9.148;2023-12-22T05:17:05;22.70;47.40
62589;DHT22;58504;48.770;9.148;2023-12-22T05:19:32;22.70;47.40
62589;DHT22;58504;48.770;9.148;2023-12-22T05:21:58;22.70;47.30
62589;DHT22;58504;48.770;9.148;2023-12-22T05:24:25;22.70;47.20
62589;DHT22;58504;48.770;9.148;2023-12-22T05:26:53;22.80;47.30
62589;DHT22;58504;48.770;9.148;2023-12-22T05:29:21;22.80;47.30
62589;DHT22;58504;48.770;9.148;2023-12-22T05:31:47;22.80;47.30
62589;DHT22;58504;48.770;9.148;2023-12-22T05:34:14;22.80;47.30
62589;DHT22;58504;48.770;9.148;2023-12-22T05:36:41;22.80;47.20
62589;DHT22;58504;48.770;9.148;2023-12-22T05:39:08;22.80;47.20
62589;DHT22;58504;48.770;9.148;2023-12-22T05:41:35;22.90;47.30
62589;DHT22;58504;48.770;9.148;2023-12-22T05:44:03;22.90;47.20
62589;DHT22;58504;48.770;9.148;2023-12-22T05:46:35;22.90;47.10
62589;DHT22;58504;48.770;9.148;2023-12-22T05:49:02;22.90;47.00
62589;DHT22;58504;48.770;9.148;2023-12-22T05:51:35;22.90;47.10
62589;DHT22;58504;48.770;9.148;2023-12-22T05:54:02;22.90;47.10
62589;DHT22;58504;48.770;9.148;2023-12-22T05:56:29;22.90;47.10
62589;DHT22;58504;48.770;9.148;2023-12-22T05:58:56;22.90;47.00
62589;DHT22;58504;48.770;9.148;2023-12-22T06:01:22;22.90;47.20
62589;DHT22;58504;48.770;9.148;2023-12-22T06:03:50;22.90;47.00
62589;DHT22;58504;48.770;9.148;2023-12-22T06:06:17;23.00;47.00
62589;DHT22;58504;48.770;9.148;2023-12-22T06:08:45;23.00;46.90
62589;DHT22;58504;48.770;9.148;2023-12-22T06:11:11;23.00;46.80
62589;DHT22;58504;48.770;9.148;2023-12-22T06:13:38;22.90;46.90
62589;DHT22;58504;48.770;9.148;2023-12-22T06:16:05;23.00;46.90
62589;DHT22;58504;48.770;9.148;2023-12-22T06:18:32;23.00;46.90
62589;DHT22;58504;48.770;9.148;2023-12-22T06:21:00;23.00;46.90
62589;DHT22;58504;48.770;9.148;2023-12-22T06:23:27;23.00;46.90
62589;DHT22;58504;48.770;9.148;2023-12-22T06:25:54;23.00;46.90
62589;DHT22;58504;48.770;9.148;2023-12-22T06:28:20;23.00;46.80
62589;DHT22;58504;48.770;9.148;2023-12-22T06:30:47;23.00;46.80
62589;DHT22;58504;48.770;9.148;2023-12-22T06:33:14;23.00;46.70
62589;DHT22;58504;48.770;9.148;2023-12-22T06:35:40;23.00;46.70
62589;DHT22;58504;48.770;9.148;2023-12-22T06:38:09;23.00;46.70
62589;DHT22;58504;48.770;9.148;2023-12-22T06:40:37;23.00;46.70
62589;DHT22;58504;48.770;9.148;2023-12-22T06:43:04;23.00;46.70
62589;DHT22;58504;48.770;9.148;2023-12-22T06:45:31;23.00;46.70
62589;DHT22;58504;48.770;9.148;2023-12-22T06:47:57;23.00;46.60
62589;DHT22;58504;48.770;9.148;2023-12-22T06:50:24;23.00;46.60
62589;DHT22;58504;48.770;9.148;2023-12-22T06:52:51;23.00;46.50
62589;DHT22;58504;48.770;9.148;2023-12-22T06:55:19;23.10;46.70
62589;DHT22;58504;48.770;9.148;2023-12-22T06:57:45;23.00;46.60
62589;DHT22;58504;48.770;9.148;2023-12-22T07:00:13;23.10;46.70
62589;DHT22;58504;48.770;9.148;2023-12-22T07:02:40;23.10;46.70
62589;DHT22;58504;48.770;9.148;2023-12-22T07:05:32;23.10;46.60
62589;DHT22;58504;48.770;9.148;2023-12-22T07:07:59;23.10;46.50
62589;DHT22;58504;48.770;9.148;2023-12-22T07:10:27;23.10;46.50
62589;DHT22;58504;48.770;9.148;2023-12-22T07:12:54;23.10;46.60
62589;DHT22;58504;48.770;9.148;2023-12-22T07:15:21;23.10;46.50
62589;DHT22;58504;48.770;9.148;2023-12-22T07:17:47;23.10;46.60
62589;DHT22;58504;48.770;9.148;2023-12-22T07:20:14;23.10;46.50
62589;DHT22;58504;48.770;9.148;2023-12-22T07:22:43;23.10;46.50
62589;DHT22;58504;48.770;9.148;2023-12-22T07:25:10;23.10;46.50
62589;DHT22;58504;48.770;9.148;2023-12-22T07:27:38;23.10;46.60
62589;DHT22;58504;48.770;9.148;2023-12-22T07:30:06;23.10;46.50
62589;DHT22;58504;48.770;9.148;2023-12-22T07:32:33;23.10;46.50
62589;DHT22;58504;48.770;9.148;2023-12-22T07:34:59;23.10;46.50
62589;DHT22;58504;48.770;9.148;2023-12-22T07:37:26;23.10;46.40
62589;DHT22;58504;48.770;9.148;2023-12-22T07:39:53;23.20;46.60
62589;DHT22;58504;48.770;9.148;2023-12-22T07:42:20;23.20;46.50
62589;DHT22;58504;48.770;9.148;2023-12-22T07:44:48;23.20;46.50
62589;DHT22;58504;48.770;9.148;2023-12-22T07:47:15;23.20;46.50
62589;DHT22;58504;48.770;9.148;2023-12-22T07:49:42;23.20;46.50
62589;DHT22;58504;48.770;9.148;2023-12-22T07:52:09;23.20;46.40
62589;DHT22;58504;48.770;9.148;2023-12-22T07:54:36;23.20;46.40
62589;DHT22;58504;48.770;9.148;2023-12-22T07:57:03;23.20;46.50
62589;DHT22;58504;48.770;9.148;2023-12-22T07:59:30;23.20;47.10
62589;DHT22;58504;48.770;9.148;2023-12-22T08:01:58;23.20;47.50
62589;DHT22;58504;48.770;9.148;2023-12-22T08:04:24;23.20;47.40
62589;DHT22;58504;48.770;9.148;2023-12-22T08:06:51;23.10;47.30
62589;DHT22;58504;48.770;9.148;2023-12-22T08:09:18;23.10;47.40
62589;DHT22;58504;48.770;9.148;2023-12-22T08:11:45;23.10;47.40
62589;DHT22;58504;48.770;9.148;2023-12-22T08:14:13;23.10;47.40
62589;DHT22;58504;48.770;9.148;2023-12-22T08:16:39;23.10;47.60
62589;DHT22;58504;48.770;9.148;2023-12-22T08:19:07;23.10;47.50
62589;DHT22;58504;48.770;9.148;2023-12-22T08:21:34;23.20;47.40
62589;DHT22;58504;48.770;9.148;2023-12-22T08:24:01;23.10;47.30
62589;DHT22;58504;48.770;9.148;2023-12-22T08:26:28;23.20;47.30
62589;DHT22;58504;48.770;9.148;2023-12-22T08:28:55;23.20;47.10
62589;DHT22;58504;48.770;9.148;2023-12-22T08:31:22;23.20;47.10
62589;DHT22;58504;48.770;9.148;2023-12-22T08:33:48;23.30;47.10
62589;DHT22;58504;48.770;9.148;2023-12-22T08:36:16;23.30;47.20
62589;DHT22;58504;48.770;9.148;2023-12-22T08:38:43;23.30;47.20
62589;DHT22;58504;48.770;9.148;2023-12-22T08:41:10;23.30;48.40
62589;DHT22;58504;48.770;9.148;2023-12-22T08:43:37;23.30;48.20
62589;DHT22;58504;48.770;9.148;2023-12-22T08:46:05;23.40;48.00
62589;DHT22;58504;48.770;9.148;2023-12-22T08:48:32;23.50;47.70
62589;DHT22;58504;48.770;9.148;2023-12-22T08:50:58;23.50;47.70
62589;DHT22;58504;48.770;9.148;2023-12-22T08:53:26;23.60;47.50
62589;DHT22;58504;48.770;9.148;2023-12-22T08:55:55;23.60;47.40
62589;DHT22;58504;48.770;9.148;2023-12-22T08:58:22;23.70;47.50
62589;DHT22;58504;48.770;9.148;2023-12-22T09:00:49;23.70;47.60
62589;DHT22;58504;48.770;9.148;2023-12-22T09:03:17;23.80;47.10
62589;DHT22;58504;48.770;9.148;2023-12-22T09:05:43;23.80;46.90
62589;DHT22;58504;48.770;9.148;2023-12-22T09:08:10;23.80;46.70
62589;DHT22;58504;48.770;9.148;2023-12-22T09:10:38;23.70;47.10
62589;DHT22;58504;48.770;9.148;2023-12-22T09:13:05;23.70;46.60
62589;DHT22;58504;48.770;9.148;2023-12-22T09:15:32;23.70;46.70
62589;DHT22;58504;48.770;9.148;2023-12-22T09:17:58;23.70;46.80
62589;DHT22;58504;48.770;9.148;2023-12-22T09:20:25;23.70;46.70
62589;DHT22;58504;48.770;9.148;2023-12-22T09:22:54;23.70;46.60
62589;DHT22;58504;48.770;9.148;2023-12-22T09:25:22;23.70;46.80
62589;DHT22;58504;48.770;9.148;2023-12-22T09:27:50;23.70;46.70
62589;DHT22;58504;48.770;9.148;2023-12-22T09:30:16;23.70;46.70
62589;DHT22;58504;48.770;9.148;2023-12-22T09:32:43;23.70;46.80
62589;DHT22;58504;48.770;9.148;2023-12-22T09:35:10;23.70;46.80
62589;DHT22;58504;48.770;9.148;2023-12-22T09:37:37;23.70;46.70
62589;DHT22;58504;48.770;9.148;2023-12-22T09:40:04;23.80;46.80
62589;DHT22;58504;48.770;9.148;2023-12-22T09:42:35;23.70;46.70
62589;DHT22;58504;48.770;9.148;2023-12-22T09:45:08;23.70;46.60
62589;DHT22;58504;48.770;9.148;2023-12-22T09:47:37;23.80;46.80
62589;DHT22;58504;48.770;9.148;2023-12-22T09:50:07;23.80;46.70
62589;DHT22;58504;48.770;9.148;2023-12-22T09:52:35;23.80;46.70
62589;DHT22;58504;48.770;9.148;2023-12-22T09:55:03;23.90;46.50
62589;DHT22;58504;48.770;9.148;2023-12-22T09:57:31;23.90;46.30
62589;DHT22;58504;48.770;9.148;2023-12-22T10:00:00;24.00;47.00
62589;DHT22;58504;48.770;9.148;2023-12-22T10:02:29;24.00;46.40
62589;DHT22;58504;48.770;9.148;2023-12-22T10:04:57;24.00;46.40
62589;DHT22;58504;48.770;9.148;2023-12-22T10:07:24;24.00;46.10
62589;DHT22;58504;48.770;9.148;2023-12-22T10:09:52;23.90;45.90
62589;DHT22;58504;48.770;9.148;2023-12-22T10:12:21;23.90;45.90
62589;DHT22;58504;48.770;9.148;2023-12-22T10:14:48;23.90;46.20
62589;DHT22;58504;48.770;9.148;2023-12-22T10:17:16;23.80;46.40
62589;DHT22;58504;48.770;9.148;2023-12-22T10:19:44;23.70;46.40
62589;DHT22;58504;48.770;9.148;2023-12-22T10:22:11;23.70;46.50
62589;DHT22;58504;48.770;9.148;2023-12-22T10:24:39;23.70;46.70
62589;DHT22;58504;48.770;9.148;2023-12-22T10:27:07;23.80;46.90
62589;DHT22;58504;48.770;9.148;2023-12-22T10:29:34;23.80;46.90
62589;DHT22;58504;48.770;9.148;2023-12-22T10:32:02;23.90;46.70
62589;DHT22;58504;48.770;9.148;2023-12-22T10:34:29;24.00;46.80
62589;DHT22;58504;48.770;9.148;2023-12-22T10:36:58;24.10;46.70
62589;DHT22;58504;48.770;9.148;2023-12-22T10:39:27;24.10;46.50
62589;DHT22;58504;48.770;9.148;2023-12-22T10:41:55;24.10;46.30
62589;DHT22;58504;48.770;9.148;2023-12-22T10:44:24;24.20;46.40
62589;DHT22;58504;48.770;9.148;2023-12-22T10:46:51;24.30;46.40
62589;DHT22;58504;48.770;9.148;2023-12-22T10:49:17;24.20;46.30
62589;DHT22;58504;48.770;9.148;2023-12-22T10:51:44;24.30;46.40
62589;DHT22;58504;48.770;9.148;2023-12-22T10:54:13;24.30;46.30
62589;DHT22;58504;48.770;9.148;2023-12-22T10:56:40;24.30;46.10
62589;DHT22;58504;48.770;9.148;2023-12-22T10:59:07;24.40;46.20
62589;DHT22;58504;48.770;9.148;2023-12-22T11:01:37;24.40;46.20
62589;DHT22;58504;48.770;9.148;2023-12-22T11:04:07;24.40;46.20
62589;DHT22;58504;48.770;9.148;2023-12-22T11:06:35;24.40;46.10
62589;DHT22;58504;48.770;9.148;2023-12-22T11:09:06;24.50;46.20
62589;DHT22;58504;48.770;9.148;2023-12-22T11:11:36;24.40;45.90
62589;DHT22;58504;48.770;9.148;2023-12-22T11:14:05;24.40;45.90
62589;DHT22;58504;48.770;9.148;2023-12-22T11:16:33;24.50;46.10
62589;DHT22;58504;48.770;9.148;2023-12-22T11:19:01;24.50;46.00
62589;DHT22;58504;48.770;9.148;2023-12-22T11:21:29;24.50;46.10
62589;DHT22;58504;48.770;9.148;2023-12-22T11:23:57;24.50;46.10
62589;DHT22;58504;48.770;9.148;2023-12-22T11:26:24;24.50;46.20
62589;DHT22;58504;48.770;9.148;2023-12-22T11:28:53;24.50;46.20
62589;DHT22;58504;48.770;9.148;2023-12-22T11:31:20;24.50;46.20
62589;DHT22;58504;48.770;9.148;2023-12-22T11:33:48;24.50;46.10
62589;DHT22;58504;48.770;9.148;2023-12-22T11:36:16;24.50;46.20
62589;DHT22;58504;48.770;9.148;2023-12-22T11:38:45;24.50;46.10
62589;DHT22;58504;48.770;9.148;2023-12-22T11:41:16;24.50;46.20
62589;DHT22;58504;48.770;9.148;2023-12-22T11:43:45;24.50;46.30
62589;DHT22;58504;48.770;9.148;2023-12-22T11:46:16;24.60;46.30
62589;DHT22;58504;48.770;9.148;2023-12-22T11:48:47;24.50;46.40
62589;DHT22;58504;48.770;9.148;2023-12-22T11:51:15;24.60;46.40
62589;DHT22;58504;48.770;9.148;2023-12-22T11:53:42;24.60;46.50
62589;DHT22;58504;48.770;9.148;2023-12-22T11:56:10;24.60;46.60
62589;DHT22;58504;48.770;9.148;2023-12-22T11:58:39;24.60;46.70
62589;DHT22;58504;48.770;9.148;2023-12-22T12:01:07;24.60;46.70
62589;DHT22;58504;48.770;9.148;2023-12-22T12:03:39;24.50;46.60
62589;DHT22;58504;48.770;9.148;2023-12-22T12:06:11;24.50;47.00
62589;DHT22;58504;48.770;9.148;2023-12-22T12:08:40;24.50;47.10
62589;DHT22;58504;48.770;9.148;2023-12-22T12:11:07;24.50;47.00
62589;DHT22;58504;48.770;9.148;2023-12-22T12:13:34;24.50;47.00
62589;DHT22;58504;48.770;9.148;2023-12-22T12:16:03;24.40;47.10
62589;DHT22;58504;48.770;9.148;2023-12-22T12:18:33;24.40;47.20
62589;DHT22;58504;48.770;9.148;2023-12-22T12:21:02;24.40;47.20
62589;DHT22;58504;48.770;9.148;2023-12-22T12:23:29;24.40;47.20
62589;DHT22;58504;48.770;9.148;2023-12-22T12:25:56;24.40;47.20
62589;DHT22;58504;48.770;9.148;2023-12-22T12:28:25;24.40;47.30
62589;DHT22;58504;48.770;9.148;2023-12-22T12:30:57;24.40;47.40
62589;DHT22;58504;48.770;9.148;2023-12-22T12:33:25;24.40;47.60
62589;DHT22;58504;48.770;9.148;2023-12-22T12:35:53;24.40;47.40
62589;DHT22;58504;48.770;9.148;2023-12-22T12:38:23;24.50;47.40
62589;DHT22;58504;48.770;9.148;2023-12-22T12:40:52;24.50;47.30
62589;DHT22;58504;48.770;9.148;2023-12-22T12:43:20;24.60;47.20
62589;DHT22;58504;48.770;9.148;2023-12-22T12:45:47;24.60;47.20
62589;DHT22;58504;48.770;9.148;2023-12-22T12:48:16;24.60;47.10
62589;DHT22;58504;48.770;9.148;2023-12-22T12:50:44;24.70;47.20
62589;DHT22;58504;48.770;9.148;2023-12-22T12:53:11;24.70;47.10
62589;DHT22;58504;48.770;9.148;2023-12-22T12:55:39;24.70;47.20
62589;DHT22;58504;48.770;9.148;2023-12-22T12:58:06;24.70;47.20
62589;DHT22;58504;48.770;9.148;2023-12-22T13:00:34;24.70;47.20
62589;DHT22;58504;48.770;9.148;2023-12-22T13:03:03;24.70;47.20
62589;DHT22;58504;48.770;9.148;2023-12-22T13:05:31;24.70;47.10
62589;DHT22;58504;48.770;9.148;2023-12-22T13:08:06;24.70;47.20
62589;DHT22;58504;48.770;9.148;2023-12-22T13:10:34;24.70;47.00
62589;DHT22;58504;48.770;9.148;2023-12-22T13:13:02;24.70;47.10
62589;DHT22;58504;48.770;9.148;2023-12-22T13:15:29;24.70;46.60
62589;DHT22;58504;48.770;9.148;2023-12-22T13:17:56;24.70;47.00
62589;DHT22;58504;48.770;9.148;2023-12-22T13:20:23;24.70;46.90
62589;DHT22;58504;48.770;9.148;2023-12-22T13:22:50;24.70;47.00
62589;DHT22;58504;48.770;9.148;2023-12-22T13:25:17;24.70;47.20
62589;DHT22;58504;48.770;9.148;2023-12-22T13:27:45;24.70;47.00
62589;DHT22;58504;48.770;9.148;2023-12-22T13:30:14;24.70;46.80
62589;DHT22;58504;48.770;9.148;2023-12-22T13:32:40;24.70;46.60
62589;DHT22;58504;48.770;9.148;2023-12-22T13:35:08;24.70;46.60
62589;DHT22;58504;48.770;9.148;2023-12-22T13:37:40;24.70;46.80
62589;DHT22;58504;48.770;9.148;2023-12-22T13:40:08;24.70;47.00
62589;DHT22;58504;48.770;9.148;2023-12-22T13:42:35;24.60;46.90
62589;DHT22;58504;48.770;9.148;2023-12-22T13:45:04;24.60;47.00
62589;DHT22;58504;48.770;9.148;2023-12-22T13:47:32;24.60;46.80
62589;DHT22;58504;48.770;9.148;2023-12-22T13:49:59;24.60;46.90
62589;DHT22;58504;48.770;9.148;2023-12-22T13:52:29;24.60;46.80
62589;DHT22;58504;48.770;9.148;2023-12-22T13:54:58;24.60;46.70
62589;DHT22;58504;48.770;9.148;2023-12-22T13:57:26;24.60;46.70
62589;DHT22;58504;48.770;9.148;2023-12-22T13:59:53;24.60;46.60
62589;DHT22;58504;48.770;9.148;2023-12-22T14:02:21;24.70;46.60
62589;DHT22;58504;48.770;9.148;2023-12-22T14:04:50;24.60;46.50
62589;DHT22;58504;48.770;9.148;2023-12-22T14:07:17;24.70;46.50
62589;DHT22;58504;48.770;9.148;2023-12-22T14:09:44;24.60;46.50
62589;DHT22;58504;48.770;9.148;2023-12-22T14:12:11;24.60;46.50
62589;DHT22;58504;48.770;9.148;2023-12-22T14:14:38;24.70;46.70
62589;DHT22;58504;48.770;9.148;2023-12-22T14:17:04;24.60;46.50
62589;DHT22;58504;48.770;9.148;2023-12-22T14:19:31;24.70;46.50
62589;DHT22;58504;48.770;9.148;2023-12-22T14:21:59;24.70;46.50
62589;DHT22;58504;48.770;9.148;2023-12-22T14:24:26;24.70;46.30
62589;DHT22;58504;48.770;9.148;2023-12-22T14:26:54;24.70;46.30
62589;DHT22;58504;48.770;9.148;2023-12-22T14:29:21;24.70;46.20
62589;DHT22;58504;48.770;9.148;2023-12-22T14:31:49;24.70;45.80
62589;DHT22;58504;48.770;9.148;2023-12-22T14:34:16;24.70;45.90
62589;DHT22;58504;48.770;9.148;2023-12-22T14:36:43;24.70;46.00
62589;DHT22;58504;48.770;9.148;2023-12-22T14:39:11;24.70;46.20
62589;DHT22;58504;48.770;9.148;2023-12-22T14:41:39;24.70;46.20
62589;DHT22;58504;48.770;9.148;2023-12-22T14:44:06;24.70;46.40
62589;DHT22;58504;48.770;9.148;2023-12-22T14:46:33;24.70;46.40
62589;DHT22;58504;48.770;9.148;2023-12-22T14:49:00;24.70;46.40
62589;DHT22;58504;48.770;9.148;2023-12-22T14:51:26;24.70;46.30
62589;DHT22;58504;48.770;9.148;2023-12-22T14:53:53;24.70;46.20
62589;DHT22;58504;48.770;9.148;2023-12-22T14:56:21;24.80;46.30
62589;DHT22;58504;48.770;9.148;2023-12-22T14:58:48;24.80;46.30
62589;DHT22;58504;48.770;9.148;2023-12-22T15:01:15;24.80;46.30
62589;DHT22;58504;48.770;9.148;2023-12-22T15:03:42;24.90;46.50
62589;DHT22;58504;48.770;9.148;2023-12-22T15:06:08;24.80;46.50
62589;DHT22;58504;48.770;9.148;2023-12-22T15:08:35;24.80;46.40
62589;DHT22;58504;48.770;9.148;2023-12-22T15:11:02;24.80;46.40
62589;DHT22;58504;48.770;9.148;2023-12-22T15:13:30;24.80;46.30
62589;DHT22;58504;48.770;9.148;2023-12-22T15:15:57;24.80;46.40
62589;DHT22;58504;48.770;9.148;2023-12-22T15:18:23;24.70;46.50
62589;DHT22;58504;48.770;9.148;2023-12-22T15:20:50;24.70;46.60
62589;DHT22;58504;48.770;9.148;2023-12-22T15:23:17;24.60;46.70
62589;DHT22;58504;48.770;9.148;2023-12-22T15:25:44;24.60;46.90
62589;DHT22;58504;48.770;9.148;2023-12-22T15:28:11;24.60;46.90
62589;DHT22;58504;48.770;9.148;2023-12-22T15:30:39;24.60;47.00
62589;DHT22;58504;48.770;9.148;2023-12-22T15:33:05;24.50;47.10